createdAt,value
2023-02-05T00:00:02.350Z,30.48
2023-02-05T00:02:32.245Z,30.08
2023-02-05T00:04:59.799Z,22.52
2023-02-05T00:07:27.691Z,21.05
2023-02-05T00:09:55.163Z,23.10
2023-02-05T00:12:22.680Z,33.25
2023-02-05T00:14:50.391Z,35.45
2023-02-05T00:17:17.905Z,28.25
2023-02-05T00:19:45.498Z,32.80
2023-02-05T00:22:12.995Z,30.45
2023-02-05T00:24:40.520Z,32.40
2023-02-05T00:27:08.361Z,31.38
2023-02-05T00:29:36.020Z,28.35
2023-02-05T00:32:03.742Z,32.97
2023-02-05T00:34:31.436Z,33.25
2023-02-05T00:36:58.917Z,33.30
2023-02-05T00:39:26.372Z,21.23
2023-02-05T00:41:53.984Z,34.38
2023-02-05T00:44:21.477Z,31.98
2023-02-05T00:46:48.893Z,36.97
2023-02-05T00:49:16.441Z,32.35
2023-02-05T00:51:43.990Z,36.78
2023-02-05T00:54:11.639Z,31.73
2023-02-05T00:56:39.077Z,37.42
2023-02-05T00:59:06.614Z,35.13
2023-02-05T01:01:34.163Z,42.17
2023-02-05T01:04:01.726Z,35.60
2023-02-05T01:06:29.452Z,36.33
2023-02-05T01:08:56.967Z,37.30
2023-02-05T01:11:24.477Z,35.72
2023-02-05T01:13:51.931Z,53.78
2023-02-05T01:16:19.577Z,32.42
2023-02-05T01:18:47.170Z,33.03
2023-02-05T01:21:14.727Z,36.60
2023-02-05T01:23:42.269Z,26.33
2023-02-05T01:26:09.707Z,33.22
2023-02-05T01:28:37.167Z,31.30
2023-02-05T01:31:04.800Z,37.70
2023-02-05T01:33:32.433Z,29.83
2023-02-05T01:35:59.991Z,39.17
2023-02-05T01:38:27.425Z,36.55
2023-02-05T01:40:54.967Z,37.75
2023-02-05T01:43:22.534Z,36.22
2023-02-05T01:46:11.171Z,32.33
2023-02-05T01:48:44.675Z,39.17
2023-02-05T01:51:15.150Z,41.22
2023-02-05T01:53:47.283Z,27.83
2023-02-05T01:56:24.509Z,33.03
2023-02-05T01:58:57.238Z,32.60
2023-02-05T02:01:26.932Z,36.38
2023-02-05T02:03:58.463Z,35.45
2023-02-05T02:06:26.045Z,33.75
2023-02-05T02:08:53.853Z,32.20
2023-02-05T02:11:23.671Z,34.45
2023-02-05T02:13:55.185Z,30.63
2023-02-05T02:16:25.216Z,36.47
2023-02-05T02:18:55.685Z,29.63
2023-02-05T02:21:51.829Z,32.35
2023-02-05T02:24:25.030Z,24.50
2023-02-05T02:27:22.914Z,21.63
2023-02-05T02:30:04.880Z,26.50
2023-02-05T02:32:43.966Z,28.38
2023-02-05T02:35:17.623Z,28.40
2023-02-05T02:40:42.801Z,28.90
2023-02-05T02:43:25.741Z,29.98
2023-02-05T02:46:01.822Z,29.85
2023-02-05T02:48:32.552Z,34.05
2023-02-05T02:51:02.535Z,26.60
2023-02-05T02:53:36.308Z,35.83
2023-02-05T02:56:06.014Z,24.83
2023-02-05T02:58:47.205Z,24.65
2023-02-05T03:01:17.819Z,41.22
2023-02-05T03:03:51.816Z,36.47
2023-02-05T03:06:23.280Z,39.75
2023-02-05T03:09:07.699Z,37.92
2023-02-05T03:11:35.366Z,34.58
2023-02-05T03:14:03.074Z,45.13
2023-02-05T03:16:35.515Z,43.92
2023-02-05T03:19:05.794Z,44.92
2023-02-05T03:21:43.013Z,46.42
2023-02-05T03:24:11.297Z,37.97
2023-02-05T03:26:39.036Z,36.25
2023-02-05T03:29:15.156Z,40.45
2023-02-05T03:32:05.315Z,39.50
2023-02-05T03:35:07.472Z,37.58
2023-02-05T03:38:03.240Z,33.83
2023-02-05T03:40:34.142Z,39.75
2023-02-05T03:43:16.223Z,33.78
2023-02-05T03:46:00.377Z,37.63
2023-02-05T03:48:48.817Z,33.55
2023-02-05T03:51:40.403Z,35.63
2023-02-05T03:54:17.340Z,39.60
2023-02-05T03:57:23.252Z,25.27
2023-02-05T03:59:56.288Z,25.92
2023-02-05T04:02:24.696Z,30.08
2023-02-05T04:04:54.981Z,25.70
2023-02-05T04:07:22.674Z,29.20
2023-02-05T04:09:50.186Z,35.65
2023-02-05T04:12:17.829Z,32.47
2023-02-05T04:14:47.516Z,36.08
2023-02-05T04:17:15.061Z,33.33
2023-02-05T04:19:43.465Z,43.28
2023-02-05T04:22:12.889Z,60.05
2023-02-05T04:24:44.269Z,39.55
2023-02-05T04:27:11.926Z,43.53
2023-02-05T04:29:40.032Z,35.25
2023-02-05T04:32:07.678Z,43.13
2023-02-05T04:34:35.537Z,35.33
2023-02-05T04:37:04.202Z,35.40
2023-02-05T04:39:31.960Z,32.75
2023-02-05T04:41:59.817Z,47.40
2023-02-05T04:44:27.383Z,49.78
2023-02-05T04:46:54.904Z,32.50
2023-02-05T04:49:22.548Z,47.97
2023-02-05T04:51:50.123Z,32.05
2023-02-05T04:54:17.588Z,31.58
2023-02-05T04:56:45.068Z,34.13
2023-02-05T04:59:12.540Z,37.03
2023-02-05T05:01:40.988Z,37.13
2023-02-05T05:04:09.612Z,40.25
2023-02-05T05:06:37.067Z,36.13
2023-02-05T05:09:04.708Z,33.35
2023-02-05T05:11:32.265Z,27.98
2023-02-05T05:13:59.704Z,38.35
2023-02-05T05:16:27.186Z,36.72
2023-02-05T05:18:54.632Z,33.17
2023-02-05T05:21:22.271Z,45.70
2023-02-05T05:23:49.803Z,37.38
2023-02-05T05:26:17.278Z,46.53
2023-02-05T05:28:44.767Z,48.58
2023-02-05T05:31:22.730Z,46.53
2023-02-05T05:33:51.477Z,47.97
2023-02-05T05:36:19.262Z,45.35
2023-02-05T05:38:46.782Z,49.72
2023-02-05T05:41:39.629Z,47.45
2023-02-05T05:44:07.399Z,47.50
2023-02-05T05:46:35.333Z,52.13
2023-02-05T05:49:03.580Z,55.42
2023-02-05T05:51:32.841Z,59.53
2023-02-05T05:54:00.508Z,49.42
2023-02-05T05:56:28.134Z,49.60
2023-02-05T05:58:55.694Z,53.25
2023-02-05T06:01:23.363Z,51.47
2023-02-05T06:03:50.892Z,45.80
2023-02-05T06:06:18.512Z,46.60
2023-02-05T06:08:46.078Z,55.90
2023-02-05T06:11:13.878Z,46.72
2023-02-05T06:13:42.129Z,49.92
2023-02-05T06:16:09.755Z,49.92
2023-02-05T06:18:37.714Z,48.40
2023-02-05T06:21:06.201Z,53.03
2023-02-05T06:23:34.739Z,54.20
2023-02-05T06:26:02.554Z,51.65
2023-02-05T06:28:30.060Z,47.38
2023-02-05T06:30:57.748Z,51.92
2023-02-05T06:33:25.531Z,55.80
2023-02-05T06:35:53.161Z,53.45
2023-02-05T06:38:20.728Z,48.33
2023-02-05T06:40:49.301Z,46.13
2023-02-05T06:43:17.022Z,44.13
2023-02-05T06:45:44.610Z,40.30
2023-02-05T06:48:12.195Z,53.03
2023-02-05T06:50:39.706Z,45.28
2023-02-05T06:53:07.360Z,45.75
2023-02-05T06:55:35.295Z,41.45
2023-02-05T06:58:03.241Z,45.88
2023-02-05T07:00:32.513Z,40.90
2023-02-05T07:03:00.335Z,46.30
2023-02-05T07:05:28.020Z,44.38
2023-02-05T07:07:55.626Z,40.78
2023-02-05T07:10:23.290Z,43.10
2023-02-05T07:12:50.792Z,45.42
2023-02-05T07:15:18.279Z,47.25
2023-02-05T07:17:45.788Z,49.40
2023-02-05T07:20:13.283Z,43.70
2023-02-05T07:22:40.826Z,44.75
2023-02-05T07:25:08.920Z,46.00
2023-02-05T07:27:36.400Z,42.35
2023-02-05T07:30:04.318Z,50.67
2023-02-05T07:32:32.005Z,50.95
2023-02-05T07:34:59.483Z,46.00
2023-02-05T07:37:27.120Z,48.33
2023-02-05T07:39:54.631Z,48.90
2023-02-05T07:42:22.220Z,47.78
2023-02-05T07:44:56.420Z,43.97
2023-02-05T07:47:23.907Z,51.28
2023-02-05T07:49:51.435Z,49.88
2023-02-05T07:52:18.980Z,47.08
2023-02-05T07:54:46.465Z,46.63
2023-02-05T07:57:14.004Z,42.78
2023-02-05T07:59:41.540Z,48.33
2023-02-05T08:02:11.788Z,46.47
2023-02-05T08:04:39.411Z,46.17
2023-02-05T08:07:07.064Z,44.97
2023-02-05T08:09:34.641Z,49.15
2023-02-05T08:12:02.102Z,51.45
2023-02-05T08:14:31.463Z,47.30
2023-02-05T08:16:59.755Z,47.80
2023-02-05T08:19:27.286Z,44.58
2023-02-05T08:21:54.801Z,39.88
2023-02-05T08:24:22.311Z,40.33
2023-02-05T08:26:49.762Z,31.15
2023-02-05T08:29:17.271Z,32.45
2023-02-05T08:31:44.798Z,33.70
2023-02-05T08:34:12.425Z,37.60
2023-02-05T08:36:40.214Z,36.63
2023-02-05T08:39:07.836Z,38.50
2023-02-05T08:41:37.151Z,36.55
2023-02-05T08:44:04.981Z,35.67
2023-02-05T08:46:47.556Z,34.25
2023-02-05T08:49:17.737Z,33.28
2023-02-05T08:51:45.428Z,33.08
2023-02-05T08:54:13.602Z,30.40
2023-02-05T08:56:43.577Z,27.77
2023-02-05T08:59:12.109Z,32.30
2023-02-05T09:01:43.299Z,30.90
2023-02-05T09:04:19.225Z,31.25
2023-02-05T09:06:47.253Z,30.88
2023-02-05T09:09:15.248Z,31.27
2023-02-05T09:11:43.097Z,30.17
2023-02-05T09:14:10.925Z,32.35
2023-02-05T09:16:38.665Z,28.70
2023-02-05T09:19:06.612Z,30.52
2023-02-05T09:21:34.620Z,27.83
2023-02-05T09:24:02.164Z,35.53
2023-02-05T09:26:29.584Z,28.73
2023-02-05T09:28:58.314Z,30.20
2023-02-05T09:31:25.936Z,35.17
2023-02-05T09:33:53.460Z,28.67
2023-02-05T09:36:23.033Z,28.83
2023-02-05T09:38:59.168Z,35.33
2023-02-05T09:41:47.981Z,29.52
2023-02-05T09:44:50.699Z,29.60
2023-02-05T09:47:33.195Z,34.78
2023-02-05T09:50:15.546Z,32.47
2023-02-05T09:52:48.033Z,35.88
2023-02-05T09:55:15.427Z,53.35
2023-02-05T09:57:43.568Z,33.70
2023-02-05T10:00:34.100Z,44.67
2023-02-05T10:03:18.202Z,36.00
2023-02-05T10:06:10.640Z,37.72
2023-02-05T10:08:57.428Z,28.67
2023-02-05T10:11:52.551Z,34.03
2023-02-05T10:14:35.980Z,32.08
2023-02-05T10:17:09.399Z,31.75
2023-02-05T10:19:48.708Z,32.83
2023-02-05T10:22:34.906Z,33.05
2023-02-05T10:25:30.215Z,30.63
2023-02-05T10:28:05.272Z,28.98
2023-02-05T10:30:53.011Z,29.52
2023-02-05T10:33:43.653Z,26.02
2023-02-05T10:36:12.879Z,35.35
2023-02-05T10:38:46.136Z,27.27
2023-02-05T10:41:26.589Z,32.83
2023-02-05T10:44:17.303Z,34.50
2023-02-05T10:46:53.412Z,31.65
2023-02-05T10:49:27.719Z,35.67
2023-02-05T10:51:55.495Z,30.27
2023-02-05T10:54:31.714Z,31.98
2023-02-05T10:57:00.196Z,32.90
2023-02-05T10:59:30.978Z,37.28
2023-02-05T11:02:03.378Z,29.42
2023-02-05T11:04:39.864Z,28.40
2023-02-05T11:07:14.004Z,27.42
2023-02-05T11:09:41.877Z,27.38
2023-02-05T11:12:23.147Z,27.60
2023-02-05T11:14:59.320Z,23.10
2023-02-05T11:17:43.641Z,21.52
2023-02-05T11:20:17.327Z,27.40
2023-02-05T11:22:48.767Z,26.40
2023-02-05T11:25:49.848Z,20.38
2023-02-05T11:28:32.776Z,18.20
2023-02-05T11:31:21.453Z,21.40
2023-02-05T11:34:05.958Z,18.55
2023-02-05T11:36:50.880Z,16.63
2023-02-05T11:39:40.495Z,20.40
2023-02-05T11:42:16.661Z,16.98
2023-02-05T11:44:52.257Z,15.57
2023-02-05T11:47:36.217Z,17.58
2023-02-05T11:50:06.217Z,21.58
2023-02-05T11:52:37.765Z,20.45
2023-02-05T11:55:06.801Z,19.08
2023-02-05T11:57:38.858Z,21.35
2023-02-05T12:00:09.423Z,22.75
2023-02-05T12:02:38.830Z,22.98
2023-02-05T12:05:12.636Z,26.02
2023-02-05T12:07:58.857Z,21.27
2023-02-05T12:10:52.664Z,25.05
2023-02-05T12:13:38.973Z,21.23
2023-02-05T12:16:19.996Z,23.85
2023-02-05T12:19:21.134Z,24.90
2023-02-05T12:22:02.718Z,28.20
2023-02-05T12:24:47.896Z,18.27
2023-02-05T12:28:00.488Z,26.35
2023-02-05T12:30:58.400Z,22.30
2023-02-05T12:33:54.428Z,20.60
2023-02-05T12:36:22.191Z,22.08
2023-02-05T12:39:11.230Z,24.80
2023-02-05T12:41:56.743Z,30.15
2023-02-05T12:44:24.379Z,26.80
2023-02-05T12:47:06.296Z,21.25
2023-02-05T12:49:54.888Z,26.05
2023-02-05T12:52:38.939Z,32.92
2023-02-05T12:55:14.808Z,31.52
2023-02-05T12:57:49.408Z,28.23
2023-02-05T13:00:33.218Z,32.30
2023-02-05T13:03:18.956Z,34.35
2023-02-05T13:05:52.598Z,24.88
2023-02-05T13:08:49.426Z,24.98
2023-02-05T13:11:42.173Z,26.33
2023-02-05T13:14:14.833Z,25.00
2023-02-05T13:17:05.370Z,28.42
2023-02-05T13:19:41.419Z,25.35
2023-02-05T13:22:37.318Z,33.65
2023-02-05T13:26:00.955Z,25.00
2023-02-05T13:28:43.495Z,28.98
2023-02-05T13:31:29.779Z,26.67
2023-02-05T13:34:03.963Z,23.05
2023-02-05T13:37:02.357Z,23.02
2023-02-05T13:39:48.636Z,26.88
2023-02-05T13:42:19.098Z,19.55
2023-02-05T13:45:05.354Z,22.80
2023-02-05T13:47:57.234Z,17.63
2023-02-05T13:50:33.948Z,16.63
2023-02-05T13:53:38.842Z,25.00
2023-02-05T13:56:47.627Z,19.77
2023-02-05T13:59:23.850Z,18.63
2023-02-05T14:01:56.536Z,20.45
2023-02-05T14:04:55.090Z,11.82
2023-02-05T14:07:30.049Z,12.02
2023-02-05T14:10:01.409Z,18.92
2023-02-05T14:15:20.344Z,20.75
2023-02-05T14:17:47.865Z,24.42
2023-02-05T14:20:44.923Z,20.02
2023-02-05T14:23:37.920Z,13.90
2023-02-05T14:26:08.671Z,18.67
2023-02-05T14:28:44.479Z,19.40
2023-02-05T14:31:49.388Z,25.27
2023-02-05T14:34:45.411Z,24.95
2023-02-05T14:37:32.668Z,27.63
2023-02-05T14:40:27.386Z,27.48
2023-02-05T14:43:15.856Z,21.48
2023-02-05T14:45:54.209Z,18.38
2023-02-05T14:48:45.744Z,19.55
2023-02-05T14:51:28.230Z,23.08
2023-02-05T14:54:02.360Z,14.55
2023-02-05T14:56:49.161Z,17.15
2023-02-05T14:59:57.083Z,19.88
2023-02-05T15:06:42.965Z,16.38
2023-02-05T15:09:34.522Z,16.88
2023-02-05T15:12:23.388Z,20.50
2023-02-05T15:15:00.882Z,25.38
2023-02-05T15:17:35.617Z,32.90
2023-02-05T15:20:21.507Z,24.75
2023-02-05T15:23:01.156Z,27.92
2023-02-05T15:26:16.164Z,27.75
2023-02-05T15:29:20.760Z,25.70
2023-02-05T15:32:29.956Z,27.25
2023-02-05T15:35:05.495Z,30.10
2023-02-05T15:37:41.348Z,30.50
2023-02-05T15:40:33.859Z,26.60
2023-02-05T15:43:12.500Z,30.10
2023-02-05T15:45:45.281Z,27.65
2023-02-05T15:48:25.154Z,30.23
2023-02-05T15:51:03.269Z,25.88
2023-02-05T15:53:37.540Z,35.60
2023-02-05T15:56:29.967Z,31.80
2023-02-05T15:59:02.320Z,42.13
2023-02-05T16:01:36.772Z,29.55
2023-02-05T16:04:18.181Z,39.13
2023-02-05T16:06:45.952Z,35.95
2023-02-05T16:09:25.381Z,34.30
2023-02-05T16:12:25.659Z,32.13
2023-02-05T16:15:01.800Z,29.23
2023-02-05T16:17:36.588Z,33.17
2023-02-05T16:20:36.629Z,33.60
2023-02-05T16:23:36.781Z,34.80
2023-02-05T16:26:15.645Z,34.30
2023-02-05T16:28:54.686Z,32.78
2023-02-05T16:31:25.644Z,30.02
2023-02-05T16:33:55.583Z,31.25
2023-02-05T16:36:26.115Z,51.78
2023-02-05T16:39:15.176Z,41.17
2023-02-05T16:42:26.912Z,37.33
2023-02-05T16:45:11.095Z,31.73
2023-02-05T16:47:38.856Z,30.38
2023-02-05T16:50:44.792Z,29.58
2023-02-05T16:53:21.325Z,30.25
2023-02-05T16:55:50.307Z,30.90
2023-02-05T16:58:24.050Z,32.65
2023-02-05T17:00:57.763Z,31.40
2023-02-05T17:03:28.389Z,37.90
2023-02-05T17:06:00.439Z,37.72
2023-02-05T17:08:37.502Z,34.80
2023-02-05T17:11:07.749Z,31.45
2023-02-05T17:13:42.311Z,37.50
2023-02-05T17:16:18.974Z,36.95
2023-02-05T17:19:01.354Z,36.78
2023-02-05T17:21:34.378Z,35.13
2023-02-05T17:24:05.357Z,30.90
2023-02-05T17:26:35.351Z,33.95
2023-02-05T17:29:07.470Z,34.28
2023-02-05T17:31:42.550Z,33.67
2023-02-05T17:34:12.212Z,39.38
2023-02-05T17:36:39.994Z,36.53
2023-02-05T17:39:07.544Z,42.67
2023-02-05T17:41:58.458Z,39.95
2023-02-05T17:44:37.144Z,44.40
2023-02-05T17:47:06.903Z,53.25
2023-02-05T17:49:34.418Z,45.58
2023-02-05T17:52:02.084Z,44.92
2023-02-05T17:54:51.388Z,39.40
2023-02-05T17:57:24.756Z,50.38
2023-02-05T17:59:52.509Z,42.97
2023-02-05T18:02:22.965Z,49.05
2023-02-05T18:04:50.732Z,44.10
2023-02-05T18:07:36.034Z,54.58
2023-02-05T18:10:06.157Z,49.60
2023-02-05T18:12:34.305Z,44.95
2023-02-05T18:15:01.872Z,48.38
2023-02-05T18:17:31.164Z,53.53
2023-02-05T18:19:58.718Z,47.88
2023-02-05T18:22:26.763Z,49.33
2023-02-05T18:24:54.412Z,47.90
2023-02-05T18:27:22.032Z,46.33
2023-02-05T18:29:49.592Z,47.95
2023-02-05T18:32:17.188Z,48.55
2023-02-05T18:34:44.675Z,46.35
2023-02-05T18:37:14.404Z,45.15
2023-02-05T18:39:43.946Z,50.58
2023-02-05T18:42:13.096Z,43.97
2023-02-05T18:44:43.243Z,43.08
2023-02-05T18:47:11.716Z,45.22
2023-02-05T18:49:39.273Z,47.38
2023-02-05T18:52:07.475Z,47.00
2023-02-05T18:54:35.069Z,42.75
2023-02-05T18:57:02.790Z,45.78
2023-02-05T18:59:30.237Z,39.65
2023-02-05T19:01:57.816Z,47.83
2023-02-05T19:04:27.195Z,42.33
2023-02-05T19:06:55.198Z,42.15
2023-02-05T19:09:25.433Z,39.83
2023-02-05T19:11:54.825Z,37.47
2023-02-05T19:14:24.383Z,38.50
2023-02-05T19:16:53.316Z,37.25
2023-02-05T19:19:26.285Z,38.55
2023-02-05T19:22:02.224Z,37.00
2023-02-05T19:24:29.996Z,40.22
2023-02-05T19:26:59.298Z,33.63
2023-02-05T19:29:27.700Z,35.63
2023-02-05T19:31:57.515Z,40.97
2023-02-05T19:34:27.953Z,31.92
2023-02-05T19:36:55.511Z,34.00
2023-02-05T19:39:23.158Z,35.78
2023-02-05T19:41:52.246Z,30.52
2023-02-05T19:44:20.182Z,31.92
2023-02-05T19:46:49.123Z,32.08
2023-02-05T19:49:19.749Z,29.23
2023-02-05T19:51:49.727Z,33.55
2023-02-05T19:54:21.152Z,30.73
2023-02-05T19:56:49.810Z,34.38
2023-02-05T19:59:17.502Z,32.75
2023-02-05T20:01:45.993Z,32.95
2023-02-05T20:04:17.596Z,30.33
2023-02-05T20:06:46.900Z,33.30
2023-02-05T20:09:16.358Z,27.05
2023-02-05T20:11:46.627Z,29.63
2023-02-05T20:14:15.012Z,29.42
2023-02-05T20:16:45.392Z,31.23
2023-02-05T20:19:15.690Z,28.58
2023-02-05T20:21:43.823Z,34.38
2023-02-05T20:24:11.679Z,27.60
2023-02-05T20:26:39.823Z,32.97
2023-02-05T20:29:26.952Z,28.20
2023-02-05T20:31:55.263Z,26.95
2023-02-05T20:34:26.138Z,30.58
2023-02-05T20:37:04.539Z,27.35
2023-02-05T20:39:35.088Z,32.22
2023-02-05T20:42:03.105Z,27.65
2023-02-05T20:44:36.533Z,30.02
2023-02-05T20:47:06.131Z,31.35
2023-02-05T20:49:40.458Z,35.50
2023-02-05T20:52:09.377Z,30.73
2023-02-05T20:54:36.947Z,32.90
2023-02-05T20:57:04.763Z,31.23
2023-02-05T20:59:33.439Z,36.63
2023-02-05T21:02:02.921Z,30.23
2023-02-05T21:04:30.865Z,31.58
2023-02-05T21:06:58.796Z,35.80
2023-02-05T21:09:26.373Z,28.20
2023-02-05T21:11:55.820Z,32.75
2023-02-05T21:14:24.035Z,33.88
2023-02-05T21:16:51.656Z,29.27
2023-02-05T21:19:19.686Z,31.40
2023-02-05T21:21:47.261Z,32.28
2023-02-05T21:24:15.711Z,33.38
2023-02-05T21:26:48.974Z,31.02
2023-02-05T21:29:19.676Z,27.73
2023-02-05T21:31:53.400Z,37.17
2023-02-05T21:34:23.677Z,33.63
2023-02-05T21:36:51.810Z,33.47
2023-02-05T21:39:22.406Z,24.67
2023-02-05T21:41:54.504Z,30.33
2023-02-05T21:44:22.532Z,29.27
2023-02-05T21:46:50.170Z,30.35
2023-02-05T21:49:17.750Z,27.42
2023-02-05T21:51:45.303Z,30.67
2023-02-05T21:54:12.801Z,26.30
2023-02-05T21:56:44.193Z,29.40
2023-02-05T21:59:13.272Z,28.85
2023-02-05T22:01:42.738Z,32.30
2023-02-05T22:04:16.180Z,25.60
2023-02-05T22:06:44.569Z,23.80
2023-02-05T22:09:14.397Z,28.00
2023-02-05T22:11:42.677Z,29.15
2023-02-05T22:14:11.072Z,28.48
2023-02-05T22:16:38.943Z,27.27
2023-02-05T22:19:07.292Z,25.42
2023-02-05T22:21:40.749Z,28.27
2023-02-05T22:24:11.370Z,24.10
2023-02-05T22:26:39.721Z,23.42
2023-02-05T22:29:09.010Z,25.90
2023-02-05T22:31:36.813Z,32.60
2023-02-05T22:34:05.062Z,24.40
2023-02-05T22:36:34.280Z,22.08
2023-02-05T22:39:02.649Z,25.58
2023-02-05T22:41:36.499Z,26.58
2023-02-05T22:44:05.722Z,26.38
2023-02-05T22:46:36.145Z,27.38
2023-02-05T22:49:04.114Z,26.35
2023-02-05T22:51:34.849Z,22.58
2023-02-05T22:54:03.287Z,25.25
2023-02-05T22:56:30.989Z,26.23
2023-02-05T22:59:01.377Z,25.60
2023-02-05T23:01:33.549Z,30.88
2023-02-05T23:04:03.328Z,26.85
2023-02-05T23:06:36.875Z,28.13
2023-02-05T23:09:12.422Z,28.20
2023-02-05T23:11:40.389Z,26.33
2023-02-05T23:14:08.693Z,30.30
2023-02-05T23:16:40.711Z,30.20
2023-02-05T23:19:11.894Z,31.58
2023-02-05T23:21:40.854Z,36.10
2023-02-05T23:24:09.450Z,30.55
2023-02-05T23:26:42.142Z,29.10
2023-02-05T23:29:12.651Z,30.70
2023-02-05T23:31:41.014Z,28.50
2023-02-05T23:34:08.732Z,37.53
2023-02-05T23:36:36.707Z,30.02
2023-02-05T23:39:04.818Z,31.88
2023-02-05T23:41:38.241Z,38.17
2023-02-05T23:44:12.165Z,29.75
2023-02-05T23:49:08.351Z,31.25
2023-02-05T23:51:36.607Z,29.35
2023-02-05T23:54:05.715Z,31.65
2023-02-05T23:56:33.618Z,33.70
2023-02-05T23:59:01.954Z,32.63
